createdAt,value
2017-11-10T00:00:52.860Z,8.30
2017-11-10T00:03:20.378Z,8.30
2017-11-10T00:05:47.817Z,8.30
2017-11-10T00:08:15.320Z,8.20
2017-11-10T00:10:42.776Z,8.20
2017-11-10T00:13:10.296Z,8.20
2017-11-10T00:15:37.822Z,8.20
2017-11-10T00:18:05.281Z,8.10
2017-11-10T00:20:32.786Z,8.10
2017-11-10T00:23:00.324Z,8.20
2017-11-10T00:25:27.757Z,8.20
2017-11-10T00:27:56.025Z,8.20
2017-11-10T00:30:24.418Z,8.10
2017-11-10T00:32:52.628Z,8.20
2017-11-10T00:35:20.137Z,8.20
2017-11-10T00:37:47.633Z,8.20
2017-11-10T00:40:15.858Z,8.10
2017-11-10T00:42:43.335Z,8.10
2017-11-10T00:45:10.798Z,8.10
2017-11-10T00:47:38.310Z,8.10
2017-11-10T00:50:05.766Z,8.20
2017-11-10T00:52:33.240Z,8.20
2017-11-10T00:55:00.741Z,8.20
2017-11-10T00:57:28.244Z,8.20
2017-11-10T00:59:56.474Z,8.20
2017-11-10T01:02:23.946Z,8.20
2017-11-10T01:04:51.560Z,8.10
2017-11-10T01:07:19.023Z,8.20
2017-11-10T01:09:46.500Z,8.10
2017-11-10T01:12:14.025Z,8.00
2017-11-10T01:14:42.279Z,8.00
2017-11-10T01:17:09.789Z,8.00
2017-11-10T01:19:38.007Z,8.00
2017-11-10T01:22:05.533Z,8.00
2017-11-10T01:24:33.005Z,8.00
2017-11-10T01:27:00.534Z,8.10
2017-11-10T01:29:28.776Z,7.90
2017-11-10T01:31:56.240Z,7.90
2017-11-10T01:34:23.766Z,7.90
2017-11-10T01:36:51.202Z,7.90
2017-11-10T01:39:19.494Z,7.90
2017-11-10T01:41:47.751Z,7.90
2017-11-10T01:44:15.214Z,7.90
2017-11-10T01:46:42.742Z,7.90
2017-11-10T01:49:10.198Z,7.90
2017-11-10T01:51:37.647Z,7.90
2017-11-10T01:54:05.079Z,7.90
2017-11-10T01:56:33.372Z,8.00
2017-11-10T01:59:00.843Z,8.00
2017-11-10T02:01:28.349Z,8.00
2017-11-10T02:03:55.814Z,8.00
2017-11-10T02:06:23.260Z,8.00
2017-11-10T02:08:50.783Z,8.00
2017-11-10T02:11:18.996Z,8.00
2017-11-10T02:13:46.445Z,8.00
2017-11-10T02:16:13.937Z,8.00
2017-11-10T02:18:41.401Z,8.00
2017-11-10T02:21:08.911Z,8.00
2017-11-10T02:23:37.139Z,8.00
2017-11-10T02:26:04.597Z,8.00
2017-11-10T02:28:32.098Z,8.00
2017-11-10T02:30:59.555Z,8.10
2017-11-10T02:33:27.007Z,8.10
2017-11-10T02:35:54.617Z,8.20
2017-11-10T02:38:22.016Z,8.10
2017-11-10T02:40:49.499Z,8.10
2017-11-10T02:43:16.983Z,8.10
2017-11-10T02:45:45.192Z,8.10
2017-11-10T02:48:12.699Z,8.10
2017-11-10T02:50:40.171Z,8.00
2017-11-10T02:53:07.637Z,8.10
2017-11-10T02:55:35.109Z,8.00
2017-11-10T02:58:03.326Z,8.10
2017-11-10T03:00:30.813Z,8.10
2017-11-10T03:02:58.284Z,8.10
2017-11-10T03:05:25.772Z,8.10
2017-11-10T03:07:53.267Z,8.00
2017-11-10T03:10:20.737Z,8.10
2017-11-10T03:12:48.213Z,8.10
2017-11-10T03:15:15.706Z,8.10
2017-11-10T03:17:43.166Z,8.10
2017-11-10T03:20:10.638Z,8.10
2017-11-10T03:22:38.112Z,8.10
2017-11-10T03:25:05.579Z,8.00
2017-11-10T03:27:33.126Z,8.00
2017-11-10T03:30:00.553Z,8.00
2017-11-10T03:32:28.006Z,8.00
2017-11-10T03:34:55.498Z,8.00
2017-11-10T03:37:22.955Z,8.00
2017-11-10T03:39:50.446Z,8.00
2017-11-10T03:42:17.940Z,8.00
2017-11-10T03:44:45.411Z,8.10
2017-11-10T03:47:12.928Z,8.10
2017-11-10T03:49:40.427Z,8.10
2017-11-10T03:52:07.924Z,8.10
2017-11-10T03:54:35.388Z,8.10
2017-11-10T03:57:02.933Z,8.10
2017-11-10T03:59:30.384Z,8.10
2017-11-10T04:01:57.838Z,8.20
2017-11-10T04:04:25.325Z,8.20
2017-11-10T04:06:52.784Z,8.20
2017-11-10T04:09:20.245Z,8.20
2017-11-10T04:11:47.733Z,8.10
2017-11-10T04:14:15.217Z,8.10
2017-11-10T04:16:42.714Z,8.10
2017-11-10T04:19:10.162Z,8.20
2017-11-10T04:21:38.447Z,8.20
2017-11-10T04:24:06.707Z,8.20
2017-11-10T04:26:34.158Z,8.20
2017-11-10T04:29:01.667Z,8.20
2017-11-10T04:31:29.143Z,8.20
2017-11-10T04:33:56.586Z,8.10
2017-11-10T04:36:24.857Z,8.20
2017-11-10T04:38:53.125Z,8.20
2017-11-10T04:41:22.124Z,8.20
2017-11-10T04:43:50.405Z,8.30
2017-11-10T04:46:17.865Z,8.20
2017-11-10T04:48:46.149Z,8.20
2017-11-10T04:51:14.410Z,8.20
2017-11-10T04:53:41.875Z,8.20
2017-11-10T04:56:09.312Z,8.30
2017-11-10T04:58:36.804Z,8.30
2017-11-10T05:01:04.262Z,8.30
2017-11-10T05:03:31.736Z,8.30
2017-11-10T05:05:59.523Z,8.30
2017-11-10T05:08:27.835Z,8.30
2017-11-10T05:10:56.189Z,8.30
2017-11-10T05:13:23.731Z,8.30
2017-11-10T05:15:51.158Z,8.30
2017-11-10T05:18:18.623Z,8.30
2017-11-10T05:20:46.121Z,8.30
2017-11-10T05:23:13.586Z,8.30
2017-11-10T05:25:41.819Z,8.30
2017-11-10T05:28:09.315Z,8.30
2017-11-10T05:30:36.766Z,8.30
2017-11-10T05:33:04.219Z,8.30
2017-11-10T05:35:31.725Z,8.30
2017-11-10T05:37:59.975Z,8.30
2017-11-10T05:40:27.424Z,8.30
2017-11-10T05:42:54.960Z,8.30
2017-11-10T05:45:22.407Z,8.30
2017-11-10T05:47:49.860Z,8.30
2017-11-10T05:50:18.140Z,8.30
2017-11-10T05:52:46.373Z,8.30
2017-11-10T05:55:13.822Z,8.30
2017-11-10T05:57:41.301Z,8.30
2017-11-10T06:00:08.752Z,8.30
2017-11-10T06:02:36.242Z,8.40
2017-11-10T06:05:03.706Z,8.40
2017-11-10T06:07:31.177Z,8.40
2017-11-10T06:09:58.666Z,8.40
2017-11-10T06:12:26.140Z,8.40
2017-11-10T06:14:53.633Z,8.40
2017-11-10T06:17:21.073Z,8.40
2017-11-10T06:19:48.561Z,8.40
2017-11-10T06:22:16.062Z,8.40
2017-11-10T06:24:43.510Z,8.40
2017-11-10T06:27:10.986Z,8.40
2017-11-10T06:29:39.221Z,8.40
2017-11-10T06:32:06.689Z,8.40
2017-11-10T06:34:34.189Z,8.40
2017-11-10T06:37:02.828Z,8.40
2017-11-10T06:39:30.293Z,8.40
2017-11-10T06:41:57.760Z,8.40
2017-11-10T06:44:25.251Z,8.40
2017-11-10T06:46:52.723Z,8.50
2017-11-10T06:49:20.179Z,8.50
2017-11-10T06:51:47.661Z,8.50
2017-11-10T06:54:15.893Z,8.50
2017-11-10T06:56:43.403Z,8.50
2017-11-10T06:59:11.628Z,8.60
2017-11-10T07:01:39.135Z,8.60
2017-11-10T07:04:06.592Z,8.50
2017-11-10T07:06:34.079Z,8.60
2017-11-10T07:09:02.346Z,8.60
2017-11-10T07:11:30.615Z,8.60
2017-11-10T07:13:58.071Z,8.60
2017-11-10T07:16:25.550Z,8.60
2017-11-10T07:18:53.829Z,8.70
2017-11-10T07:21:22.116Z,8.80
2017-11-10T07:23:50.354Z,8.80
2017-11-10T07:26:17.871Z,8.80
2017-11-10T07:28:46.113Z,8.80
2017-11-10T07:31:13.599Z,8.80
2017-11-10T07:33:41.064Z,8.80
2017-11-10T07:36:08.527Z,8.80
2017-11-10T07:38:36.789Z,8.70
2017-11-10T07:41:04.240Z,8.70
2017-11-10T07:43:31.728Z,8.70
2017-11-10T07:45:59.956Z,8.70
2017-11-10T07:48:27.494Z,8.70
2017-11-10T07:50:55.020Z,8.70
2017-11-10T07:53:22.473Z,8.70
2017-11-10T07:55:49.945Z,8.70
2017-11-10T07:58:17.391Z,8.70
2017-11-10T08:00:44.882Z,8.70
2017-11-10T08:03:13.112Z,8.80
2017-11-10T08:05:40.656Z,8.80
2017-11-10T08:08:08.154Z,8.80
2017-11-10T08:10:35.642Z,8.80
2017-11-10T08:13:03.129Z,8.80
2017-11-10T08:15:30.614Z,8.80
2017-11-10T08:17:58.125Z,8.80
2017-11-10T08:20:25.565Z,8.80
2017-11-10T08:22:53.054Z,8.80
2017-11-10T08:25:20.556Z,8.80
2017-11-10T08:27:48.003Z,8.90
2017-11-10T08:30:16.330Z,8.90
2017-11-10T08:32:43.803Z,8.90
2017-11-10T08:35:11.281Z,8.90
2017-11-10T08:37:38.737Z,9.00
2017-11-10T08:40:06.234Z,8.90
2017-11-10T08:42:34.487Z,8.90
2017-11-10T08:45:01.981Z,9.00
2017-11-10T08:47:29.441Z,9.00
2017-11-10T08:49:57.720Z,9.00
2017-11-10T08:52:25.965Z,8.90
2017-11-10T08:54:53.369Z,8.90
2017-11-10T08:57:20.866Z,8.90
2017-11-10T08:59:48.354Z,8.90
2017-11-10T09:02:15.764Z,8.90
2017-11-10T09:04:43.258Z,8.90
2017-11-10T09:07:11.395Z,8.90
2017-11-10T09:09:38.881Z,8.90
2017-11-10T09:12:06.364Z,8.90
2017-11-10T09:14:33.894Z,8.90
2017-11-10T09:17:01.316Z,8.90
2017-11-10T09:19:28.772Z,8.90
2017-11-10T09:21:56.294Z,8.90
2017-11-10T09:24:23.746Z,8.90
2017-11-10T09:26:51.256Z,8.90
2017-11-10T09:29:19.514Z,8.90
2017-11-10T09:31:47.097Z,9.00
2017-11-10T09:34:14.566Z,9.00
2017-11-10T09:36:42.054Z,9.00
2017-11-10T09:39:10.290Z,9.10
2017-11-10T09:41:37.791Z,9.00
2017-11-10T09:44:05.243Z,9.10
2017-11-10T09:46:32.696Z,9.10
2017-11-10T09:49:00.175Z,9.20
2017-11-10T09:51:28.399Z,9.20
2017-11-10T09:53:55.881Z,9.10
2017-11-10T09:56:23.344Z,9.20
2017-11-10T09:58:50.826Z,9.10
2017-11-10T10:01:18.324Z,9.20
2017-11-10T10:03:46.632Z,9.20
2017-11-10T10:06:14.214Z,9.20
2017-11-10T10:08:41.716Z,9.20
2017-11-10T10:11:09.251Z,9.20
2017-11-10T10:13:36.757Z,9.30
2017-11-10T10:16:04.227Z,9.20
2017-11-10T10:18:31.710Z,9.20
2017-11-10T10:20:59.260Z,9.20
2017-11-10T10:23:26.786Z,9.20
2017-11-10T10:25:54.240Z,9.20
2017-11-10T10:28:21.743Z,9.20
2017-11-10T10:30:50.177Z,9.30
2017-11-10T10:33:17.589Z,9.30
2017-11-10T10:35:45.092Z,9.30
2017-11-10T10:38:12.632Z,9.20
2017-11-10T10:40:40.160Z,9.30
2017-11-10T10:43:08.581Z,9.30
2017-11-10T10:45:36.126Z,9.30
2017-11-10T10:48:03.625Z,9.30
2017-11-10T10:50:31.145Z,9.40
2017-11-10T10:52:59.399Z,9.40
2017-11-10T10:55:26.883Z,9.40
2017-11-10T10:57:54.341Z,9.40
2017-11-10T11:00:22.760Z,9.40
2017-11-10T11:02:50.264Z,9.40
2017-11-10T11:05:17.766Z,9.40
2017-11-10T11:07:45.270Z,9.40
2017-11-10T11:10:12.765Z,9.50
2017-11-10T11:12:40.204Z,9.50
2017-11-10T11:15:07.914Z,9.50
2017-11-10T11:17:36.155Z,9.50
2017-11-10T11:20:03.650Z,9.50
2017-11-10T11:22:31.139Z,9.50
2017-11-10T11:24:58.654Z,9.60
2017-11-10T11:27:26.131Z,9.60
2017-11-10T11:29:53.633Z,9.60
2017-11-10T11:32:21.883Z,9.70
2017-11-10T11:34:51.200Z,9.70
2017-11-10T11:37:18.668Z,9.70
2017-11-10T11:39:46.144Z,9.70
2017-11-10T11:42:13.679Z,9.70
2017-11-10T11:44:41.931Z,9.70
2017-11-10T11:47:09.483Z,9.70
2017-11-10T11:49:37.053Z,9.70
2017-11-10T11:52:05.336Z,9.70
2017-11-10T11:54:32.783Z,9.70
2017-11-10T11:57:00.301Z,9.70
2017-11-10T11:59:28.591Z,9.70
2017-11-10T12:01:56.021Z,9.70
2017-11-10T12:04:23.610Z,9.70
2017-11-10T12:06:54.622Z,9.70
2017-11-10T12:09:22.037Z,9.70
2017-11-10T12:11:49.520Z,9.70
2017-11-10T12:14:16.992Z,9.70
2017-11-10T12:16:44.493Z,9.60
2017-11-10T12:19:11.984Z,9.60
2017-11-10T12:21:39.433Z,9.60
2017-11-10T12:24:06.982Z,9.60
2017-11-10T12:26:35.300Z,9.60
2017-11-10T12:29:02.787Z,9.60
2017-11-10T12:31:30.330Z,9.60
2017-11-10T12:33:57.801Z,9.60
2017-11-10T12:36:25.299Z,9.50
2017-11-10T12:38:52.789Z,9.50
2017-11-10T12:41:21.003Z,9.50
2017-11-10T12:43:48.531Z,9.50
2017-11-10T12:46:16.060Z,9.60
2017-11-10T12:48:43.581Z,9.50
2017-11-10T12:51:11.354Z,9.50
2017-11-10T12:53:39.936Z,9.50
2017-11-10T12:56:08.186Z,9.50
2017-11-10T12:58:36.470Z,9.50
2017-11-10T13:01:03.940Z,9.50
2017-11-10T13:03:32.940Z,9.50
2017-11-10T13:06:00.399Z,9.50
2017-11-10T13:08:29.055Z,9.60
2017-11-10T13:10:56.532Z,9.60
2017-11-10T13:13:23.985Z,9.60
2017-11-10T13:15:51.485Z,9.60
2017-11-10T13:18:18.976Z,9.70
2017-11-10T13:20:46.483Z,9.70
2017-11-10T13:23:14.734Z,9.80
2017-11-10T13:25:42.258Z,9.70
2017-11-10T13:28:10.516Z,9.80
2017-11-10T13:30:37.913Z,9.80
2017-11-10T13:33:05.400Z,9.90
2017-11-10T13:35:32.862Z,9.90
2017-11-10T13:38:00.402Z,10.00
2017-11-10T13:40:27.858Z,10.00
2017-11-10T13:42:55.328Z,10.00
2017-11-10T13:45:22.829Z,10.00
2017-11-10T13:47:50.266Z,10.00
2017-11-10T13:50:17.787Z,10.10
2017-11-10T13:52:46.080Z,10.00
2017-11-10T13:55:13.580Z,10.00
2017-11-10T13:57:41.063Z,10.00
2017-11-10T14:00:08.504Z,10.00
2017-11-10T14:02:35.942Z,10.00
2017-11-10T14:05:03.438Z,9.90
2017-11-10T14:07:30.944Z,9.90
2017-11-10T14:09:58.440Z,9.90
2017-11-10T14:12:25.949Z,9.80
2017-11-10T14:14:53.400Z,9.90
2017-11-10T14:17:20.995Z,9.90
2017-11-10T14:19:49.260Z,9.80
2017-11-10T14:22:16.745Z,9.70
2017-11-10T14:24:47.459Z,9.70
2017-11-10T14:27:15.252Z,9.70
2017-11-10T14:29:43.605Z,9.60
2017-11-10T14:32:11.071Z,9.60
2017-11-10T14:34:38.682Z,9.60
2017-11-10T14:37:07.051Z,9.50
2017-11-10T14:39:34.589Z,9.50
2017-11-10T14:42:02.801Z,9.40
2017-11-10T14:44:30.378Z,9.40
2017-11-10T14:46:57.909Z,9.40
2017-11-10T14:49:26.281Z,9.40
2017-11-10T14:51:53.756Z,9.40
2017-11-10T14:54:22.011Z,9.40
2017-11-10T14:56:49.537Z,9.40
2017-11-10T14:59:17.005Z,9.40
2017-11-10T15:01:44.505Z,9.40
2017-11-10T15:04:11.970Z,9.40
2017-11-10T15:06:39.537Z,9.40
2017-11-10T15:09:06.988Z,9.40
2017-11-10T15:11:34.517Z,9.30
2017-11-10T15:14:03.073Z,9.30
2017-11-10T15:16:30.552Z,9.30
2017-11-10T15:18:58.033Z,9.30
2017-11-10T15:21:25.516Z,9.30
2017-11-10T15:23:53.021Z,9.30
2017-11-10T15:26:21.311Z,9.20
2017-11-10T15:28:48.736Z,9.20
2017-11-10T15:31:16.270Z,9.20
2017-11-10T15:33:43.754Z,9.20
2017-11-10T15:36:11.215Z,9.10
2017-11-10T15:38:38.691Z,8.90
2017-11-10T15:41:06.166Z,8.80
2017-11-10T15:43:35.222Z,8.80
2017-11-10T15:46:02.710Z,8.80
2017-11-10T15:48:30.169Z,8.90
2017-11-10T15:50:57.638Z,8.90
2017-11-10T15:53:26.114Z,8.80
2017-11-10T15:55:53.596Z,8.90
2017-11-10T15:58:21.891Z,8.80
2017-11-10T16:00:50.088Z,8.80
2017-11-10T16:03:17.564Z,8.80
2017-11-10T16:05:45.101Z,8.70
2017-11-10T16:08:12.580Z,8.80
2017-11-10T16:10:40.102Z,8.80
2017-11-10T16:13:07.523Z,8.70
2017-11-10T16:15:35.018Z,8.80
2017-11-10T16:18:03.269Z,8.80
2017-11-10T16:20:30.841Z,8.80
2017-11-10T16:22:58.301Z,8.70
2017-11-10T16:25:25.793Z,8.70
2017-11-10T16:27:53.232Z,8.70
2017-11-10T16:30:20.801Z,8.70
2017-11-10T16:32:48.289Z,8.70
2017-11-10T16:35:15.802Z,8.70
2017-11-10T16:37:44.029Z,8.60
2017-11-10T16:40:11.497Z,8.60
2017-11-10T16:42:40.505Z,8.70
2017-11-10T16:45:08.747Z,8.70
2017-11-10T16:47:36.231Z,8.70
2017-11-10T16:50:05.242Z,8.60
2017-11-10T16:52:33.228Z,8.60
2017-11-10T16:55:00.681Z,8.60
2017-11-10T16:57:29.165Z,8.50
2017-11-10T16:59:57.471Z,8.30
2017-11-10T17:02:25.740Z,8.30
2017-11-10T17:04:53.206Z,8.30
2017-11-10T17:07:21.455Z,8.20
2017-11-10T17:09:48.979Z,8.20
2017-11-10T17:12:16.457Z,8.20
2017-11-10T17:14:43.976Z,8.10
2017-11-10T17:17:11.527Z,8.00
2017-11-10T17:19:39.761Z,7.90
2017-11-10T17:22:07.222Z,7.90
2017-11-10T17:24:35.490Z,7.90
2017-11-10T17:27:02.984Z,7.90
2017-11-10T17:29:30.467Z,7.90
2017-11-10T17:31:58.792Z,8.40
2017-11-10T17:34:26.298Z,8.50
2017-11-10T17:36:53.820Z,8.10
2017-11-10T17:39:22.069Z,8.00
2017-11-10T17:41:50.364Z,7.80
2017-11-10T17:44:17.774Z,7.80
2017-11-10T17:46:45.365Z,7.80
2017-11-10T17:49:12.817Z,7.80
2017-11-10T17:51:40.336Z,8.00
2017-11-10T17:54:07.875Z,8.30
2017-11-10T17:56:36.159Z,8.60
2017-11-10T17:59:03.644Z,8.60
2017-11-10T18:01:31.135Z,8.70
2017-11-10T18:03:58.745Z,8.90
2017-11-10T18:06:26.325Z,8.70
2017-11-10T18:08:54.546Z,8.90
2017-11-10T18:11:21.984Z,8.90
2017-11-10T18:13:49.618Z,9.10
2017-11-10T18:16:17.217Z,9.40
2017-11-10T18:18:44.845Z,9.70
2017-11-10T18:21:12.306Z,9.80
2017-11-10T18:23:39.847Z,10.00
2017-11-10T18:26:07.324Z,10.40
2017-11-10T18:28:35.630Z,10.00
2017-11-10T18:31:03.294Z,10.00
2017-11-10T18:33:31.558Z,9.10
2017-11-10T18:35:59.126Z,9.10
2017-11-10T18:38:26.551Z,8.80
2017-11-10T18:40:54.070Z,8.60
2017-11-10T18:43:21.593Z,8.80
2017-11-10T18:45:49.828Z,8.50
2017-11-10T18:48:18.561Z,8.50
2017-11-10T18:50:46.761Z,8.40
2017-11-10T18:53:14.228Z,8.40
2017-11-10T18:55:42.533Z,8.30
2017-11-10T18:58:10.087Z,8.30
2017-11-10T19:00:37.534Z,8.20
2017-11-10T19:03:05.781Z,8.00
2017-11-10T19:05:33.250Z,8.00
2017-11-10T19:08:00.783Z,8.40
2017-11-10T19:10:28.983Z,8.40
2017-11-10T19:12:56.471Z,8.40
2017-11-10T19:15:24.723Z,8.90
2017-11-10T19:17:52.206Z,8.80
2017-11-10T19:20:19.773Z,8.90
2017-11-10T19:22:47.262Z,8.80
2017-11-10T19:25:14.711Z,9.00
2017-11-10T19:27:42.239Z,9.40
2017-11-10T19:30:09.719Z,9.40
2017-11-10T19:32:37.140Z,9.60
2017-11-10T19:35:04.667Z,9.70
2017-11-10T19:37:32.906Z,10.50
2017-11-10T19:40:01.204Z,10.40
2017-11-10T19:42:28.679Z,10.30
2017-11-10T19:44:56.897Z,9.50
2017-11-10T19:47:24.431Z,9.50
2017-11-10T19:49:51.936Z,9.20
2017-11-10T19:52:19.450Z,8.80
2017-11-10T19:54:46.894Z,8.50
2017-11-10T19:57:14.363Z,8.40
2017-11-10T19:59:41.852Z,8.20
2017-11-10T20:02:09.348Z,8.20
2017-11-10T20:04:36.841Z,8.20
2017-11-10T20:07:04.373Z,8.30
2017-11-10T20:09:31.826Z,8.10
2017-11-10T20:12:00.064Z,7.90
2017-11-10T20:14:28.342Z,7.90
2017-11-10T20:16:56.631Z,7.80
2017-11-10T20:19:24.886Z,7.70
2017-11-10T20:21:52.315Z,7.80
2017-11-10T20:24:19.800Z,7.70
2017-11-10T20:26:47.343Z,7.50
2017-11-10T20:29:14.784Z,7.60
2017-11-10T20:31:42.265Z,7.70
2017-11-10T20:34:09.746Z,7.50
2017-11-10T20:36:37.486Z,7.60
2017-11-10T20:39:05.040Z,7.40
2017-11-10T20:41:32.488Z,7.50
2017-11-10T20:44:00.741Z,7.50
2017-11-10T20:46:28.249Z,7.50
2017-11-10T20:48:55.722Z,7.40
2017-11-10T20:51:23.224Z,7.40
2017-11-10T20:53:50.740Z,7.40
2017-11-10T20:56:18.936Z,7.30
2017-11-10T20:58:46.381Z,7.30
2017-11-10T21:01:14.155Z,7.40
2017-11-10T21:03:41.651Z,7.30
2017-11-10T21:06:09.194Z,7.30
2017-11-10T21:08:37.386Z,7.30
2017-11-10T21:11:04.917Z,7.20
2017-11-10T21:13:32.422Z,7.20
2017-11-10T21:16:01.401Z,7.20
2017-11-10T21:18:28.915Z,7.20
2017-11-10T21:20:57.209Z,7.30
2017-11-10T21:23:24.735Z,7.30
2017-11-10T21:25:52.196Z,7.30
2017-11-10T21:28:19.706Z,7.10
2017-11-10T21:30:47.176Z,7.10
2017-11-10T21:33:14.723Z,7.10
2017-11-10T21:35:42.252Z,7.10
2017-11-10T21:38:09.735Z,7.10
2017-11-10T21:40:38.025Z,7.10
2017-11-10T21:43:05.533Z,7.10
2017-11-10T21:45:33.078Z,7.20
2017-11-10T21:48:00.554Z,7.30
2017-11-10T21:50:28.067Z,7.30
2017-11-10T21:52:55.526Z,7.30
2017-11-10T21:55:22.979Z,7.30
2017-11-10T21:57:50.474Z,7.30
2017-11-10T22:00:17.973Z,7.30
2017-11-10T22:02:45.422Z,7.20
2017-11-10T22:05:12.923Z,7.20
2017-11-10T22:07:40.413Z,7.10
2017-11-10T22:10:08.668Z,7.10
2017-11-10T22:12:36.155Z,7.00
2017-11-10T22:15:04.407Z,7.10
2017-11-10T22:17:31.862Z,7.00
2017-11-10T22:19:59.375Z,7.10
2017-11-10T22:22:27.582Z,7.20
2017-11-10T22:24:55.108Z,7.10
2017-11-10T22:27:23.345Z,6.90
2017-11-10T22:29:50.863Z,6.90
2017-11-10T22:32:18.328Z,6.90
2017-11-10T22:34:45.774Z,6.90
2017-11-10T22:37:13.229Z,7.00
2017-11-10T22:39:40.741Z,6.90
2017-11-10T22:42:08.188Z,6.90
2017-11-10T22:44:35.730Z,6.80
2017-11-10T22:47:03.181Z,6.90
2017-11-10T22:49:31.407Z,7.00
2017-11-10T22:51:58.922Z,7.00
2017-11-10T22:54:26.394Z,7.10
2017-11-10T22:56:54.677Z,7.10
2017-11-10T22:59:22.137Z,7.10
2017-11-10T23:01:50.385Z,6.90
2017-11-10T23:04:17.820Z,6.90
2017-11-10T23:06:45.294Z,7.00
2017-11-10T23:09:12.735Z,7.00
2017-11-10T23:11:41.018Z,7.00
2017-11-10T23:14:08.533Z,7.00
2017-11-10T23:16:36.766Z,7.00
2017-11-10T23:19:04.324Z,7.00
2017-11-10T23:21:31.788Z,7.00
2017-11-10T23:23:59.289Z,7.00
2017-11-10T23:26:26.777Z,7.10
2017-11-10T23:28:54.226Z,7.10
2017-11-10T23:31:21.704Z,7.10
2017-11-10T23:33:49.984Z,7.10
2017-11-10T23:36:18.206Z,7.20
2017-11-10T23:38:45.660Z,7.20
2017-11-10T23:41:13.157Z,7.20
2017-11-10T23:43:40.630Z,7.20
2017-11-10T23:46:08.059Z,7.20
2017-11-10T23:48:35.588Z,7.30
2017-11-10T23:51:03.089Z,7.20
2017-11-10T23:53:30.525Z,7.40
2017-11-10T23:55:58.037Z,7.50
2017-11-10T23:58:25.557Z,7.50
